Time;durP1;ratioP1;P1;durP2;ratioP2;P2;SDS_P1;SDS_P2;PMS_P1;PMS_P2;Temp;Humidity;BMP_temperature;BMP_pressure;BME280_temperature;BME280_humidity;BME280_pressure;Samples;Min_cycle;Max_cycle;Signal;HPM_P1;HPM_P2
2022/12/20 00:00:55;;;;;;;;;;;;;;;1.48;100.00;96820.56;4989582;28;19920;-93
2022/12/20 00:03:21;;;;;;;;;;;;;;;1.48;100.00;96826.56;4992101;28;19936;-92
2022/12/20 00:05:47;;;;;;;;;;;;;;;1.48;100.00;96828.31;4989207;28;20359;-92
2022/12/20 00:08:35;;;;;;;;;;;;;;;1.48;100.00;96823.97;4989190;28;19921;-93
2022/12/20 00:11:01;;;;;;;;;;;;;;;1.42;100.00;96819.13;4982975;28;19913;-92
2022/12/20 00:13:27;;;;;;;;;;;;;;;1.39;100.00;96829.69;4975950;28;19909;-92
2022/12/20 00:16:15;;;;;;;;;;;;;;;1.46;100.00;96831.00;4982081;28;20368;-92
2022/12/20 00:18:42;;;;;;;;;;;;;;;1.42;100.00;96843.28;5000030;28;19929;-92
2022/12/20 00:21:09;;;;;;;;;;;;;;;1.50;100.00;96834.25;5003997;28;19917;-92
2022/12/20 00:23:39;;;;;;;;;;;;;;;1.56;100.00;96832.13;4982576;28;19928;-92
2022/12/20 00:26:05;;;;;;;;;;;;;;;1.48;100.00;96825.75;4986620;28;19914;-92
2022/12/20 00:28:31;;;;;;;;;;;;;;;1.43;100.00;96820.78;5002943;28;19913;-92
2022/12/20 00:30:57;;;;;;;;;;;;;;;1.39;100.00;96820.16;5000202;28;20442;-92
2022/12/20 00:33:22;;;;;;;;;;;;;;;1.40;100.00;96821.81;4982638;28;19953;-93
2022/12/20 00:35:50;;;;;;;;;;;;;;;1.45;100.00;96823.31;4998678;28;19916;-92
2022/12/20 00:38:16;;;;;;;;;;;;;;;1.42;100.00;96819.97;4987459;28;19920;-93
2022/12/20 00:40:41;;;;;;;;;;;;;;;1.48;100.00;96825.75;4999730;28;19913;-93
2022/12/20 00:43:09;;;;;;;;;;;;;;;1.41;100.00;96827.84;4974208;28;19913;-92
2022/12/20 00:45:36;;;;;;;;;;;;;;;1.42;100.00;96816.53;4974600;28;20503;-92
2022/12/20 00:48:03;;;;;;;;;;;;;;;1.47;100.00;96811.91;4989905;28;19972;-92
2022/12/20 00:50:28;;;;;;;;;;;;;;;1.41;100.00;96807.94;4989187;28;19940;-93
2022/12/20 00:53:04;;;;;;;;;;;;;;;1.31;100.00;96816.34;4980140;28;20411;-93
2022/12/20 00:55:29;;;;;;;;;;;;;;;1.35;100.00;96802.28;4982503;28;19953;-93
2022/12/20 00:58:08;;;;;;;;;;;;;;;1.30;100.00;96804.28;4980555;28;19910;-93
2022/12/20 01:00:37;;;;;;;;;;;;;;;1.38;100.00;96802.09;4981468;28;19917;-92
2022/12/20 01:03:03;;;;;;;;;;;;;;;1.36;100.00;96802.19;4981926;28;19914;-92
2022/12/20 01:05:29;;;;;;;;;;;;;;;1.44;100.00;96800.91;4979771;28;19921;-93
2022/12/20 01:07:55;;;;;;;;;;;;;;;1.44;100.00;96806.91;4988368;28;19909;-92
2022/12/20 01:10:21;;;;;;;;;;;;;;;1.48;100.00;96803.25;4993077;28;19917;-92
2022/12/20 01:12:46;;;;;;;;;;;;;;;1.49;100.00;96809.25;5002163;28;19918;-93
2022/12/20 01:15:29;;;;;;;;;;;;;;;1.52;100.00;96815.09;4981365;28;19924;-93
2022/12/20 01:17:56;;;;;;;;;;;;;;;1.49;100.00;96822.22;4982664;28;19959;-93
2022/12/20 01:20:22;;;;;;;;;;;;;;;1.36;100.00;96816.91;4980316;28;19917;-92
2022/12/20 01:22:47;;;;;;;;;;;;;;;1.31;100.00;96824.13;4988396;28;19909;-94
2022/12/20 01:25:13;;;;;;;;;;;;;;;1.29;100.00;96823.34;5008115;28;19917;-93
2022/12/20 01:27:38;;;;;;;;;;;;;;;1.34;100.00;96826.50;4989110;28;19921;-92
2022/12/20 01:30:04;;;;;;;;;;;;;;;1.20;100.00;96818.69;4998352;28;19909;-93
2022/12/20 01:32:30;;;;;;;;;;;;;;;1.09;100.00;96811.53;4995230;28;19925;-93
2022/12/20 01:34:55;;;;;;;;;;;;;;;1.05;100.00;96816.06;4970807;28;19914;-93
2022/12/20 01:37:21;;;;;;;;;;;;;;;1.07;100.00;96806.44;4978109;28;19913;-93
2022/12/20 01:39:46;;;;;;;;;;;;;;;1.10;100.00;96808.84;4984381;28;19914;-93
2022/12/20 01:42:15;;;;;;;;;;;;;;;1.22;100.00;96798.72;4982338;28;19918;-92
2022/12/20 01:44:45;;;;;;;;;;;;;;;1.40;100.00;96797.66;4997110;28;19914;-93
2022/12/20 01:47:11;;;;;;;;;;;;;;;1.43;100.00;96794.88;4982928;28;19936;-93
2022/12/20 01:49:39;;;;;;;;;;;;;;;1.48;100.00;96795.47;4984053;28;19913;-93
2022/12/20 01:52:14;;;;;;;;;;;;;;;1.51;100.00;96791.84;4990751;28;19930;-92
2022/12/20 01:54:59;;;;;;;;;;;;;;;1.50;100.00;96787.59;4984421;28;19949;-93
2022/12/20 01:57:54;;;;;;;;;;;;;;;1.60;100.00;96792.13;4984645;28;19920;-93
2022/12/20 02:00:20;;;;;;;;;;;;;;;1.72;100.00;96808.75;4980430;28;19953;-92
2022/12/20 02:06:16;;;;;;;;;;;;;;;1.87;100.00;96809.56;5018240;28;20461;-93
2022/12/20 02:08:42;;;;;;;;;;;;;;;1.76;100.00;96801.59;4984295;28;19914;-93
2022/12/20 02:11:16;;;;;;;;;;;;;;;1.65;100.00;96794.47;4984491;28;19920;-93
2022/12/20 02:13:50;;;;;;;;;;;;;;;1.56;100.00;96792.41;4981981;28;19914;-93
2022/12/20 02:16:21;;;;;;;;;;;;;;;1.36;100.00;96788.38;4989003;28;19921;-93
2022/12/20 02:18:51;;;;;;;;;;;;;;;1.24;100.00;96782.19;4987119;28;19914;-94
2022/12/20 02:21:17;;;;;;;;;;;;;;;1.18;100.00;96792.88;4989845;28;19914;-94
2022/12/20 02:24:09;;;;;;;;;;;;;;;1.17;100.00;96796.38;4985829;28;19920;-93
2022/12/20 02:26:41;;;;;;;;;;;;;;;1.23;100.00;96792.63;4996543;28;19913;-94
2022/12/20 02:29:10;;;;;;;;;;;;;;;1.29;100.00;96787.09;4989674;28;19920;-93
2022/12/20 02:31:41;;;;;;;;;;;;;;;1.44;100.00;96770.63;4976699;28;19921;-93
2022/12/20 02:34:08;;;;;;;;;;;;;;;1.50;100.00;96756.47;4965178;28;19918;-94
2022/12/20 02:36:33;;;;;;;;;;;;;;;1.57;100.00;96760.38;4981703;28;20052;-93
2022/12/20 02:38:59;;;;;;;;;;;;;;;1.62;100.00;96755.75;4986932;28;19955;-93
2022/12/20 02:41:29;;;;;;;;;;;;;;;1.68;100.00;96750.22;4976824;28;20287;-93
2022/12/20 02:47:00;;;;;;;;;;;;;;;1.86;100.00;96735.28;4982731;28;19997;-93
2022/12/20 02:49:29;;;;;;;;;;;;;;;1.90;100.00;96741.97;4990639;28;19909;-93
2022/12/20 02:51:56;;;;;;;;;;;;;;;1.95;100.00;96737.34;4978359;28;20008;-94
2022/12/20 02:57:18;;;;;;;;;;;;;;;1.87;100.00;96731.78;5000226;28;20011;-93
2022/12/20 02:59:56;;;;;;;;;;;;;;;1.78;100.00;96724.56;4984545;28;19963;-93
2022/12/20 03:05:52;;;;;;;;;;;;;;;1.79;100.00;96724.47;5040742;28;19925;-94
2022/12/20 03:08:19;;;;;;;;;;;;;;;2.09;100.00;96724.34;4999014;28;19963;-94
2022/12/20 03:10:45;;;;;;;;;;;;;;;2.28;100.00;96718.00;5002691;28;19909;-93
2022/12/20 03:13:11;;;;;;;;;;;;;;;2.25;100.00;96718.22;4999813;28;19944;-93
2022/12/20 03:15:44;;;;;;;;;;;;;;;2.12;100.00;96706.00;5000781;28;19923;-94
2022/12/20 03:18:14;;;;;;;;;;;;;;;2.21;100.00;96711.53;4991461;28;20375;-94
2022/12/20 03:20:40;;;;;;;;;;;;;;;2.26;100.00;96715.50;4983194;28;19924;-94
2022/12/20 03:23:05;;;;;;;;;;;;;;;2.22;100.00;96731.38;4983880;28;19914;-94
2022/12/20 03:25:42;;;;;;;;;;;;;;;2.21;100.00;96734.88;4985005;28;19917;-94
2022/12/20 03:28:18;;;;;;;;;;;;;;;2.32;100.00;96729.88;4984447;28;20390;-94
2022/12/20 03:30:44;;;;;;;;;;;;;;;2.38;100.00;96726.88;4999393;28;19917;-94
2022/12/20 03:33:10;;;;;;;;;;;;;;;2.40;100.00;96719.81;4983165;28;19914;-93
2022/12/20 03:35:39;;;;;;;;;;;;;;;2.41;100.00;96724.06;4979515;28;19914;-94
2022/12/20 03:38:05;;;;;;;;;;;;;;;2.38;100.00;96732.06;5006581;28;20326;-94
2022/12/20 03:40:31;;;;;;;;;;;;;;;2.51;100.00;96726.94;4999446;28;19940;-94
2022/12/20 03:42:56;;;;;;;;;;;;;;;2.48;100.00;96721.94;4990059;28;19922;-94
2022/12/20 03:48:50;;;;;;;;;;;;;;;2.46;100.00;96719.44;5016949;28;19920;-93
2022/12/20 03:51:16;;;;;;;;;;;;;;;2.38;100.00;96716.47;4986340;28;19917;-94
2022/12/20 03:53:41;;;;;;;;;;;;;;;2.32;100.00;96709.09;4979809;28;19922;-94
2022/12/20 03:58:57;;;;;;;;;;;;;;;2.39;100.00;96725.97;4996030;28;19925;-94
2022/12/20 04:01:24;;;;;;;;;;;;;;;2.46;100.00;96708.22;4979850;28;19913;-94
2022/12/20 04:03:50;;;;;;;;;;;;;;;2.55;100.00;96671.31;4979823;28;19910;-93
2022/12/20 04:06:16;;;;;;;;;;;;;;;2.40;100.00;96672.28;4981232;28;19967;-94
2022/12/20 04:08:42;;;;;;;;;;;;;;;2.47;100.00;96676.13;4990058;28;20330;-93
2022/12/20 04:11:15;;;;;;;;;;;;;;;2.51;100.00;96681.03;4985164;28;19917;-94
2022/12/20 04:14:00;;;;;;;;;;;;;;;2.52;100.00;96680.13;4992350;28;19959;-94
2022/12/20 04:16:33;;;;;;;;;;;;;;;2.57;100.00;96675.44;4999095;28;19913;-94
2022/12/20 04:19:00;;;;;;;;;;;;;;;2.49;100.00;96677.72;4999532;28;19956;-94
2022/12/20 04:21:31;;;;;;;;;;;;;;;2.48;100.00;96686.44;4999510;28;20000;-94
2022/12/20 04:23:58;;;;;;;;;;;;;;;2.44;100.00;96684.13;4991232;28;19918;-94
2022/12/20 04:26:30;;;;;;;;;;;;;;;2.54;100.00;96680.84;4983870;28;19920;-94
2022/12/20 04:28:58;;;;;;;;;;;;;;;2.56;100.00;96670.38;4984034;28;19913;-94
2022/12/20 04:31:25;;;;;;;;;;;;;;;2.50;100.00;96675.94;4983154;28;19924;-94
2022/12/20 04:33:52;;;;;;;;;;;;;;;2.47;100.00;96676.13;4975369;28;19945;-94
2022/12/20 04:36:18;;;;;;;;;;;;;;;2.39;100.00;96675.81;4983584;28;19963;-95
2022/12/20 04:38:44;;;;;;;;;;;;;;;2.32;100.00;96680.56;4980020;28;19913;-94
2022/12/20 04:41:20;;;;;;;;;;;;;;;2.10;100.00;96676.72;4963645;28;19914;-94
2022/12/20 04:43:52;;;;;;;;;;;;;;;1.98;100.00;96676.63;4967698;28;19914;-94
2022/12/20 04:46:23;;;;;;;;;;;;;;;2.03;100.00;96664.22;5000189;28;19906;-94
2022/12/20 04:48:49;;;;;;;;;;;;;;;1.99;100.00;96676.56;5007833;28;19948;-94
2022/12/20 04:51:15;;;;;;;;;;;;;;;1.94;100.00;96660.44;4994808;28;19921;-95
2022/12/20 04:53:48;;;;;;;;;;;;;;;1.99;100.00;96647.19;4981435;28;19924;-93
2022/12/20 04:56:49;;;;;;;;;;;;;;;2.09;100.00;96637.91;4965116;28;19976;-93
2022/12/20 04:59:19;;;;;;;;;;;;;;;2.25;100.00;96641.19;4972433;28;19913;-94
2022/12/20 05:01:47;;;;;;;;;;;;;;;2.25;100.00;96636.00;4980797;28;19913;-93
2022/12/20 05:07:51;;;;;;;;;;;;;;;2.28;100.00;96627.16;5012691;28;19988;-94
2022/12/20 05:13:45;;;;;;;;;;;;;;;2.25;100.00;96637.78;5013741;28;20394;-94
2022/12/20 05:16:13;;;;;;;;;;;;;;;2.25;100.00;96629.97;4980791;28;19933;-95
2022/12/20 05:18:51;;;;;;;;;;;;;;;2.44;100.00;96627.84;4979904;28;19914;-94
2022/12/20 05:27:27;;;;;;;;;;;;;;;2.50;100.00;96604.09;4991951;28;20322;-94
2022/12/20 05:29:53;;;;;;;;;;;;;;;2.50;100.00;96593.69;4972899;28;20367;-94
2022/12/20 05:32:19;;;;;;;;;;;;;;;2.50;100.00;96591.09;4970721;28;19913;-94
2022/12/20 05:34:54;;;;;;;;;;;;;;;2.61;100.00;96587.78;4972135;28;19924;-93
2022/12/20 05:37:23;;;;;;;;;;;;;;;2.65;100.00;96583.22;4978742;28;19913;-94
2022/12/20 05:39:49;;;;;;;;;;;;;;;2.63;100.00;96592.91;4977806;28;19914;-94
2022/12/20 05:42:19;;;;;;;;;;;;;;;2.54;100.00;96600.34;4975967;28;19916;-94
2022/12/20 05:44:50;;;;;;;;;;;;;;;2.52;100.00;96599.63;4976966;28;19921;-93
2022/12/20 05:47:16;;;;;;;;;;;;;;;2.54;100.00;96592.56;4954588;28;20891;-92
2022/12/20 05:49:42;;;;;;;;;;;;;;;2.44;100.00;96593.28;4919593;28;19928;-92
2022/12/20 05:52:09;;;;;;;;;;;;;;;2.51;100.00;96603.16;4908731;28;19924;-92
2022/12/20 05:54:37;;;;;;;;;;;;;;;2.47;100.00;96604.28;4980621;28;20072;-92
2022/12/20 05:57:08;;;;;;;;;;;;;;;2.41;100.00;96614.22;4957920;28;19968;-93
2022/12/20 05:59:36;;;;;;;;;;;;;;;2.49;100.00;96607.63;4942949;28;19931;-95
2022/12/20 06:02:04;;;;;;;;;;;;;;;2.38;100.00;96607.47;4955952;28;19924;-94
2022/12/20 06:04:31;;;;;;;;;;;;;;;2.33;100.00;96597.41;4957745;28;19922;-92
2022/12/20 06:07:00;;;;;;;;;;;;;;;2.26;100.00;96597.91;4916404;28;19922;-94
2022/12/20 06:09:36;;;;;;;;;;;;;;;2.36;100.00;96593.78;4922164;28;19921;-94
2022/12/20 06:12:09;;;;;;;;;;;;;;;2.42;100.00;96588.19;4843554;28;20286;-92
2022/12/20 06:14:37;;;;;;;;;;;;;;;2.43;100.00;96589.84;4869792;28;20284;-92
2022/12/20 06:17:05;;;;;;;;;;;;;;;2.43;100.00;96587.25;4831021;28;19920;-92
2022/12/20 06:19:31;;;;;;;;;;;;;;;2.57;100.00;96581.16;4848712;28;19921;-93
2022/12/20 06:21:58;;;;;;;;;;;;;;;2.73;100.00;96580.97;4830613;28;19924;-92
2022/12/20 06:24:52;;;;;;;;;;;;;;;2.81;100.00;96578.69;4846332;28;21581;-92
2022/12/20 06:27:23;;;;;;;;;;;;;;;2.66;100.00;96569.34;4908828;28;19913;-93
2022/12/20 06:30:08;;;;;;;;;;;;;;;3.04;100.00;96574.53;4906500;28;21183;-93
2022/12/20 06:32:47;;;;;;;;;;;;;;;3.04;100.00;96572.75;4907990;28;20769;-92
2022/12/20 06:35:13;;;;;;;;;;;;;;;2.82;100.00;96581.19;4906793;28;19924;-92
2022/12/20 06:37:39;;;;;;;;;;;;;;;2.86;100.00;96584.41;4946871;28;20356;-93
2022/12/20 06:40:07;;;;;;;;;;;;;;;2.93;100.00;96571.84;4961471;28;19921;-92
2022/12/20 06:42:37;;;;;;;;;;;;;;;2.94;100.00;96570.91;4995903;28;19917;-93
2022/12/20 06:45:03;;;;;;;;;;;;;;;2.98;100.00;96564.56;4987670;28;20043;-92
2022/12/20 06:47:29;;;;;;;;;;;;;;;3.14;100.00;96575.56;4989685;28;19917;-92
2022/12/20 06:49:57;;;;;;;;;;;;;;;3.14;100.00;96574.75;4976403;28;19917;-93
2022/12/20 06:52:23;;;;;;;;;;;;;;;3.30;100.00;96570.16;4974533;28;19914;-93
2022/12/20 06:54:53;;;;;;;;;;;;;;;3.39;100.00;96579.09;5000102;28;19917;-93
2022/12/20 06:57:20;;;;;;;;;;;;;;;3.58;100.00;96589.03;4980579;28;19945;-91
2022/12/20 06:59:47;;;;;;;;;;;;;;;3.27;100.00;96591.97;4985490;28;19927;-94
2022/12/20 07:02:18;;;;;;;;;;;;;;;3.25;100.00;96582.63;4998024;28;20004;-94
2022/12/20 07:04:44;;;;;;;;;;;;;;;3.05;100.00;96583.97;5000378;28;19917;-94
2022/12/20 07:07:10;;;;;;;;;;;;;;;2.91;100.00;96577.13;4986123;28;19997;-94
2022/12/20 07:09:42;;;;;;;;;;;;;;;2.96;100.00;96575.06;4983614;28;19924;-94
2022/12/20 07:12:12;;;;;;;;;;;;;;;3.05;100.00;96573.59;4982647;28;19967;-93
2022/12/20 07:14:37;;;;;;;;;;;;;;;3.15;100.00;96576.38;4982109;28;20387;-94
2022/12/20 07:17:06;;;;;;;;;;;;;;;3.09;100.00;96579.44;4981486;28;19913;-94
2022/12/20 07:19:32;;;;;;;;;;;;;;;3.10;100.00;96578.50;4980807;28;19940;-94
2022/12/20 07:21:57;;;;;;;;;;;;;;;3.21;100.00;96565.56;4993988;28;19963;-94
2022/12/20 07:24:23;;;;;;;;;;;;;;;3.21;100.00;96561.22;4981008;28;19936;-94
2022/12/20 07:26:48;;;;;;;;;;;;;;;3.25;100.00;96567.88;4978235;28;20260;-94
2022/12/20 07:29:14;;;;;;;;;;;;;;;3.29;100.00;96579.72;4976743;28;19914;-94
2022/12/20 07:31:39;;;;;;;;;;;;;;;3.27;100.00;96572.97;4977706;28;19952;-94
2022/12/20 07:34:05;;;;;;;;;;;;;;;3.36;100.00;96564.53;4978417;28;19917;-94
2022/12/20 07:36:40;;;;;;;;;;;;;;;3.39;100.00;96569.53;4983787;28;20391;-95
2022/12/20 07:39:05;;;;;;;;;;;;;;;3.53;100.00;96568.56;4983190;28;19913;-94
2022/12/20 07:41:31;;;;;;;;;;;;;;;3.47;100.00;96567.19;4984521;28;19953;-95
2022/12/20 07:44:02;;;;;;;;;;;;;;;3.46;100.00;96570.75;4996606;28;19913;-94
2022/12/20 07:46:28;;;;;;;;;;;;;;;3.47;100.00;96572.41;4985896;28;19914;-94
2022/12/20 07:48:59;;;;;;;;;;;;;;;3.59;100.00;96569.88;4987071;28;19942;-95
2022/12/20 07:51:27;;;;;;;;;;;;;;;3.59;100.00;96569.88;5002750;28;20378;-94
2022/12/20 07:56:56;;;;;;;;;;;;;;;3.68;100.00;96558.81;5008877;28;19917;-93
2022/12/20 08:03:03;;;;;;;;;;;;;;;3.84;100.00;96563.78;5019794;28;20278;-94
2022/12/20 08:09:01;;;;;;;;;;;;;;;3.92;100.00;96551.91;5029761;28;19908;-95
2022/12/20 08:11:28;;;;;;;;;;;;;;;3.99;100.00;96555.72;5007642;28;19921;-93
2022/12/20 08:13:57;;;;;;;;;;;;;;;4.06;100.00;96557.84;5007189;28;20001;-95
2022/12/20 08:16:22;;;;;;;;;;;;;;;4.04;100.00;96551.94;4999140;28;19909;-94
2022/12/20 08:22:11;;;;;;;;;;;;;;;4.08;100.00;96555.97;5000138;28;20017;-96
2022/12/20 08:24:39;;;;;;;;;;;;;;;4.17;100.00;96547.50;4968602;28;19978;-95
2022/12/20 08:27:05;;;;;;;;;;;;;;;4.27;100.00;96555.47;4991351;28;19988;-94
2022/12/20 08:29:31;;;;;;;;;;;;;;;4.37;100.00;96551.25;4980589;28;19945;-94
2022/12/20 08:32:18;;;;;;;;;;;;;;;4.41;100.00;96553.50;4987573;28;19960;-93
2022/12/20 08:34:44;;;;;;;;;;;;;;;4.45;100.00;96549.72;4980814;28;19924;-94
2022/12/20 08:37:10;;;;;;;;;;;;;;;4.40;100.00;96551.84;4997623;28;19977;-94
2022/12/20 08:39:36;;;;;;;;;;;;;;;4.49;100.00;96553.78;4982886;28;19917;-94
2022/12/20 14:13:33;;;;;;;;;;;;;;;5.93;100.00;96293.03;5034002;28;19960;-93
2022/12/20 14:16:25;;;;;;;;;;;;;;;5.90;100.00;96289.72;5000919;28;19929;-95
2022/12/20 14:19:16;;;;;;;;;;;;;;;5.87;100.00;96289.97;5021521;28;19917;-94
2022/12/20 14:21:43;;;;;;;;;;;;;;;5.90;100.00;96286.25;5005205;28;19929;-94
2022/12/20 14:24:37;;;;;;;;;;;;;;;5.93;100.00;96278.22;5005223;28;19905;-94
2022/12/20 14:27:13;;;;;;;;;;;;;;;5.85;100.00;96272.78;5001716;28;19937;-94
2022/12/20 14:29:46;;;;;;;;;;;;;;;5.80;100.00;96261.91;4985875;28;19922;-93
2022/12/20 14:32:24;;;;;;;;;;;;;;;5.81;100.00;96259.16;5012338;28;19909;-94
2022/12/20 14:34:58;;;;;;;;;;;;;;;5.76;100.00;96258.72;5016833;28;20127;-93
2022/12/20 14:37:34;;;;;;;;;;;;;;;5.73;100.00;96258.97;5006711;28;19921;-95
2022/12/20 14:43:32;;;;;;;;;;;;;;;5.66;100.00;96250.00;5026033;28;19912;-93
2022/12/20 18:45:34;;;;;;;;;;;;;;;4.96;100.00;96145.44;4931418;29;19938;-90
2022/12/20 18:59:11;;;;;;;;;;;;;;;4.88;100.00;96166.06;4831005;29;19972;-92
2022/12/20 19:06:02;;;;;;;;;;;;;;;4.91;100.00;96147.56;4809246;29;19954;-94
2022/12/20 19:08:38;;;;;;;;;;;;;;;4.86;100.00;96154.97;4810519;29;19941;-94
2022/12/20 19:11:28;;;;;;;;;;;;;;;4.82;100.00;96156.13;4800669;29;19920;-93
2022/12/20 19:18:47;;;;;;;;;;;;;;;4.88;100.00;96163.44;4845007;29;19922;-91
2022/12/20 19:25:03;;;;;;;;;;;;;;;4.82;100.00;96160.53;4834495;29;20041;-91
2022/12/20 19:28:33;;;;;;;;;;;;;;;4.82;100.00;96157.91;4813411;29;20462;-91
2022/12/20 19:31:38;;;;;;;;;;;;;;;4.80;100.00;96163.28;4779426;29;19937;-91
2022/12/20 19:34:51;;;;;;;;;;;;;;;4.76;100.00;96161.84;4817841;29;19983;-91
2022/12/20 19:37:42;;;;;;;;;;;;;;;4.69;100.00;96169.34;4799919;29;19932;-91
2022/12/20 19:44:11;;;;;;;;;;;;;;;4.74;100.00;96148.13;4792141;29;19928;-91
2022/12/20 19:54:27;;;;;;;;;;;;;;;4.69;100.00;96150.28;4805101;29;19985;-91
2022/12/20 20:01:08;;;;;;;;;;;;;;;4.69;100.00;96139.84;4809074;29;20064;-90
2022/12/20 20:14:51;;;;;;;;;;;;;;;4.72;100.00;96139.59;4850583;29;19931;-92
